KDWH

David Wayne Hooks Memorial Airport

Houston, Texas, USA
METAR KDWH 230826Z AUTO 00000KT 1 3/4SM BR CLR 21/21 A2998 RMK AO2 T02110211
Observed Flight Rules
May-23 @ 08:26 UTC (9 minutes ago) Instrument Flight Rules
Visibility Clouds Conditions
1 3/4 miles
  • Clear skies
  • Mist
Temperatures Readings
Current 21°C / 70°F
Dewpoint 21°C / 70°F
Humidity 100%
Altimeter 29.98" Hg
Pressure 1015 hPa
Elevation 46
METAR KDWH 230826Z AUTO 00000KT 1 3/4SM BR CLR 21/21 A2998 RMK AO2 T02110211
Observed Flight Rules
May-23 @ 08:26 UTC
(9 minutes ago)
IFR
Clouds
  • Clear skies
Conditions
  • Mist
Temperature Dewpoint
21°C / 70°F 21°C / 70°F
Humidity Altimeter Pressure
100% 29.98" Hg 1015 hPa